sensor_id;sensor_type;location;lat;lon;timestamp;P1;durP1;ratioP1;P2;durP2;ratioP2
12177;SDS011;6152;48.728;9.256;2022-08-16T00:00:26;3.38;;;1.85;;
12177;SDS011;6152;48.728;9.256;2022-08-16T00:02:54;2.30;;;2.10;;
12177;SDS011;6152;48.728;9.256;2022-08-16T00:05:21;3.03;;;2.05;;
12177;SDS011;6152;48.728;9.256;2022-08-16T00:07:50;2.80;;;2.20;;
12177;SDS011;6152;48.728;9.256;2022-08-16T00:10:17;1.92;;;1.83;;
12177;SDS011;6152;48.728;9.256;2022-08-16T00:12:45;2.90;;;2.40;;
12177;SDS011;6152;48.728;9.256;2022-08-16T00:15:21;2.55;;;1.95;;
12177;SDS011;6152;48.728;9.256;2022-08-16T00:17:50;2.55;;;1.73;;
12177;SDS011;6152;48.728;9.256;2022-08-16T00:20:16;2.92;;;2.10;;
12177;SDS011;6152;48.728;9.256;2022-08-16T00:22:43;2.42;;;2.08;;
12177;SDS011;6152;48.728;9.256;2022-08-16T00:25:11;2.53;;;2.33;;
12177;SDS011;6152;48.728;9.256;2022-08-16T00:27:39;2.30;;;2.10;;
12177;SDS011;6152;48.728;9.256;2022-08-16T00:30:07;3.70;;;2.10;;
12177;SDS011;6152;48.728;9.256;2022-08-16T00:32:37;2.53;;;1.92;;
12177;SDS011;6152;48.728;9.256;2022-08-16T00:35:06;2.53;;;2.17;;
12177;SDS011;6152;48.728;9.256;2022-08-16T00:37:34;3.72;;;2.15;;
12177;SDS011;6152;48.728;9.256;2022-08-16T00:40:00;2.50;;;2.30;;
12177;SDS011;6152;48.728;9.256;2022-08-16T00:42:27;2.50;;;2.30;;
12177;SDS011;6152;48.728;9.256;2022-08-16T00:44:56;2.42;;;2.10;;
12177;SDS011;6152;48.728;9.256;2022-08-16T00:47:52;3.60;;;2.38;;
12177;SDS011;6152;48.728;9.256;2022-08-16T00:50:20;2.55;;;2.35;;
12177;SDS011;6152;48.728;9.256;2022-08-16T00:52:48;2.72;;;2.53;;
12177;SDS011;6152;48.728;9.256;2022-08-16T00:55:14;3.03;;;2.40;;
12177;SDS011;6152;48.728;9.256;2022-08-16T00:57:40;2.63;;;2.42;;
12177;SDS011;6152;48.728;9.256;2022-08-16T01:00:07;3.42;;;2.70;;
12177;SDS011;6152;48.728;9.256;2022-08-16T01:02:34;2.70;;;2.50;;
12177;SDS011;6152;48.728;9.256;2022-08-16T01:05:00;3.08;;;2.85;;
12177;SDS011;6152;48.728;9.256;2022-08-16T01:07:27;3.00;;;2.72;;
12177;SDS011;6152;48.728;9.256;2022-08-16T01:09:53;3.03;;;2.63;;
12177;SDS011;6152;48.728;9.256;2022-08-16T01:12:19;2.75;;;2.47;;
12177;SDS011;6152;48.728;9.256;2022-08-16T01:14:47;7.00;;;3.08;;
12177;SDS011;6152;48.728;9.256;2022-08-16T01:17:18;3.15;;;2.85;;
12177;SDS011;6152;48.728;9.256;2022-08-16T01:19:49;3.70;;;2.70;;
12177;SDS011;6152;48.728;9.256;2022-08-16T01:22:21;3.60;;;3.30;;
12177;SDS011;6152;48.728;9.256;2022-08-16T01:25:00;2.88;;;2.67;;
12177;SDS011;6152;48.728;9.256;2022-08-16T01:27:39;4.38;;;2.67;;
12177;SDS011;6152;48.728;9.256;2022-08-16T01:30:11;3.30;;;3.00;;
12177;SDS011;6152;48.728;9.256;2022-08-16T01:32:40;5.20;;;2.67;;
12177;SDS011;6152;48.728;9.256;2022-08-16T01:35:08;5.60;;;3.13;;
12177;SDS011;6152;48.728;9.256;2022-08-16T01:37:41;4.03;;;3.15;;
12177;SDS011;6152;48.728;9.256;2022-08-16T01:40:09;3.50;;;2.65;;
12177;SDS011;6152;48.728;9.256;2022-08-16T01:42:37;4.13;;;2.50;;
12177;SDS011;6152;48.728;9.256;2022-08-16T01:45:03;5.53;;;3.40;;
12177;SDS011;6152;48.728;9.256;2022-08-16T01:47:30;4.47;;;3.55;;
12177;SDS011;6152;48.728;9.256;2022-08-16T01:49:57;3.03;;;2.72;;
12177;SDS011;6152;48.728;9.256;2022-08-16T01:52:24;3.63;;;3.08;;
12177;SDS011;6152;48.728;9.256;2022-08-16T01:54:50;5.30;;;3.75;;
12177;SDS011;6152;48.728;9.256;2022-08-16T01:57:16;5.15;;;3.90;;
12177;SDS011;6152;48.728;9.256;2022-08-16T01:59:42;4.22;;;3.83;;
12177;SDS011;6152;48.728;9.256;2022-08-16T02:02:09;4.63;;;3.85;;
12177;SDS011;6152;48.728;9.256;2022-08-16T02:04:35;4.00;;;3.30;;
12177;SDS011;6152;48.728;9.256;2022-08-16T02:07:01;4.57;;;3.60;;
12177;SDS011;6152;48.728;9.256;2022-08-16T02:09:32;4.40;;;3.80;;
12177;SDS011;6152;48.728;9.256;2022-08-16T02:12:01;5.68;;;3.55;;
12177;SDS011;6152;48.728;9.256;2022-08-16T02:14:31;4.70;;;4.13;;
12177;SDS011;6152;48.728;9.256;2022-08-16T02:16:59;4.55;;;4.03;;
12177;SDS011;6152;48.728;9.256;2022-08-16T02:19:29;5.00;;;3.63;;
12177;SDS011;6152;48.728;9.256;2022-08-16T02:21:56;6.40;;;3.78;;
12177;SDS011;6152;48.728;9.256;2022-08-16T02:24:24;5.18;;;4.00;;
12177;SDS011;6152;48.728;9.256;2022-08-16T02:26:50;4.47;;;3.60;;
12177;SDS011;6152;48.728;9.256;2022-08-16T02:29:17;4.75;;;3.75;;
12177;SDS011;6152;48.728;9.256;2022-08-16T02:31:45;4.00;;;3.42;;
12177;SDS011;6152;48.728;9.256;2022-08-16T02:34:13;4.25;;;3.80;;
12177;SDS011;6152;48.728;9.256;2022-08-16T02:36:40;3.88;;;3.47;;
12177;SDS011;6152;48.728;9.256;2022-08-16T02:39:08;5.60;;;3.58;;
12177;SDS011;6152;48.728;9.256;2022-08-16T02:41:37;4.15;;;3.75;;
12177;SDS011;6152;48.728;9.256;2022-08-16T02:44:05;6.07;;;3.92;;
12177;SDS011;6152;48.728;9.256;2022-08-16T02:46:32;5.07;;;3.42;;
12177;SDS011;6152;48.728;9.256;2022-08-16T02:48:59;4.93;;;3.30;;
12177;SDS011;6152;48.728;9.256;2022-08-16T02:51:25;5.22;;;3.55;;
12177;SDS011;6152;48.728;9.256;2022-08-16T02:53:52;4.63;;;3.90;;
12177;SDS011;6152;48.728;9.256;2022-08-16T02:56:18;3.63;;;3.33;;
12177;SDS011;6152;48.728;9.256;2022-08-16T02:58:45;6.03;;;3.72;;
12177;SDS011;6152;48.728;9.256;2022-08-16T03:01:14;5.72;;;3.80;;
12177;SDS011;6152;48.728;9.256;2022-08-16T03:03:42;5.10;;;3.30;;
12177;SDS011;6152;48.728;9.256;2022-08-16T03:06:09;3.95;;;3.47;;
12177;SDS011;6152;48.728;9.256;2022-08-16T03:08:35;4.20;;;3.53;;
12177;SDS011;6152;48.728;9.256;2022-08-16T03:11:02;3.55;;;3.25;;
12177;SDS011;6152;48.728;9.256;2022-08-16T03:13:28;5.82;;;3.85;;
12177;SDS011;6152;48.728;9.256;2022-08-16T03:15:54;5.32;;;3.95;;
12177;SDS011;6152;48.728;9.256;2022-08-16T03:18:20;5.15;;;3.58;;
12177;SDS011;6152;48.728;9.256;2022-08-16T03:20:46;7.38;;;3.92;;
12177;SDS011;6152;48.728;9.256;2022-08-16T03:23:13;4.47;;;3.78;;
12177;SDS011;6152;48.728;9.256;2022-08-16T03:25:39;3.92;;;3.50;;
12177;SDS011;6152;48.728;9.256;2022-08-16T03:28:06;4.28;;;3.33;;
12177;SDS011;6152;48.728;9.256;2022-08-16T03:30:33;3.92;;;3.63;;
12177;SDS011;6152;48.728;9.256;2022-08-16T03:33:00;5.97;;;4.32;;
12177;SDS011;6152;48.728;9.256;2022-08-16T03:35:29;4.63;;;3.90;;
12177;SDS011;6152;48.728;9.256;2022-08-16T03:37:58;5.22;;;3.97;;
12177;SDS011;6152;48.728;9.256;2022-08-16T03:40:28;4.45;;;4.03;;
12177;SDS011;6152;48.728;9.256;2022-08-16T03:42:57;5.07;;;3.75;;
12177;SDS011;6152;48.728;9.256;2022-08-16T03:45:23;3.45;;;3.13;;
12177;SDS011;6152;48.728;9.256;2022-08-16T03:47:50;4.30;;;3.45;;
12177;SDS011;6152;48.728;9.256;2022-08-16T03:50:16;4.95;;;3.88;;
12177;SDS011;6152;48.728;9.256;2022-08-16T03:52:43;4.38;;;3.70;;
12177;SDS011;6152;48.728;9.256;2022-08-16T03:55:10;4.75;;;4.15;;
12177;SDS011;6152;48.728;9.256;2022-08-16T03:57:36;4.13;;;3.70;;
12177;SDS011;6152;48.728;9.256;2022-08-16T04:00:04;5.47;;;3.40;;
12177;SDS011;6152;48.728;9.256;2022-08-16T04:02:40;4.60;;;4.18;;
12177;SDS011;6152;48.728;9.256;2022-08-16T04:05:07;4.55;;;4.13;;
12177;SDS011;6152;48.728;9.256;2022-08-16T04:07:34;5.75;;;3.53;;
12177;SDS011;6152;48.728;9.256;2022-08-16T04:10:00;4.97;;;4.00;;
12177;SDS011;6152;48.728;9.256;2022-08-16T04:12:29;7.15;;;4.35;;
12177;SDS011;6152;48.728;9.256;2022-08-16T04:14:55;5.88;;;4.32;;
12177;SDS011;6152;48.728;9.256;2022-08-16T04:17:21;4.28;;;3.88;;
12177;SDS011;6152;48.728;9.256;2022-08-16T04:19:47;6.20;;;3.90;;
12177;SDS011;6152;48.728;9.256;2022-08-16T04:22:14;4.90;;;3.90;;
12177;SDS011;6152;48.728;9.256;2022-08-16T04:24:41;5.80;;;4.03;;
12177;SDS011;6152;48.728;9.256;2022-08-16T04:27:07;7.13;;;4.22;;
12177;SDS011;6152;48.728;9.256;2022-08-16T04:29:33;5.97;;;3.97;;
12177;SDS011;6152;48.728;9.256;2022-08-16T04:31:59;6.95;;;4.38;;
12177;SDS011;6152;48.728;9.256;2022-08-16T04:34:27;4.38;;;3.95;;
12177;SDS011;6152;48.728;9.256;2022-08-16T04:36:56;10.48;;;3.90;;
12177;SDS011;6152;48.728;9.256;2022-08-16T04:39:26;6.20;;;4.15;;
12177;SDS011;6152;48.728;9.256;2022-08-16T04:41:57;5.20;;;4.05;;
12177;SDS011;6152;48.728;9.256;2022-08-16T04:44:23;5.97;;;3.72;;
12177;SDS011;6152;48.728;9.256;2022-08-16T04:46:50;4.40;;;4.00;;
12177;SDS011;6152;48.728;9.256;2022-08-16T04:49:17;5.13;;;4.03;;
12177;SDS011;6152;48.728;9.256;2022-08-16T04:51:43;5.10;;;4.18;;
12177;SDS011;6152;48.728;9.256;2022-08-16T04:54:10;6.38;;;4.40;;
12177;SDS011;6152;48.728;9.256;2022-08-16T04:56:36;5.18;;;4.50;;
12177;SDS011;6152;48.728;9.256;2022-08-16T04:59:03;6.10;;;4.70;;
12177;SDS011;6152;48.728;9.256;2022-08-16T05:01:29;4.80;;;4.00;;
12177;SDS011;6152;48.728;9.256;2022-08-16T05:03:55;4.70;;;4.20;;
12177;SDS011;6152;48.728;9.256;2022-08-16T05:06:22;4.88;;;4.07;;
12177;SDS011;6152;48.728;9.256;2022-08-16T05:08:48;4.82;;;3.47;;
12177;SDS011;6152;48.728;9.256;2022-08-16T05:11:14;4.38;;;3.97;;
12177;SDS011;6152;48.728;9.256;2022-08-16T05:13:41;5.03;;;4.53;;
12177;SDS011;6152;48.728;9.256;2022-08-16T05:16:11;5.90;;;4.22;;
12177;SDS011;6152;48.728;9.256;2022-08-16T05:18:46;6.05;;;4.10;;
12177;SDS011;6152;48.728;9.256;2022-08-16T05:21:13;6.25;;;4.55;;
12177;SDS011;6152;48.728;9.256;2022-08-16T05:23:39;9.07;;;4.20;;
12177;SDS011;6152;48.728;9.256;2022-08-16T05:26:05;4.90;;;4.20;;
12177;SDS011;6152;48.728;9.256;2022-08-16T05:28:31;5.07;;;3.95;;
12177;SDS011;6152;48.728;9.256;2022-08-16T05:30:58;4.47;;;4.07;;
12177;SDS011;6152;48.728;9.256;2022-08-16T05:33:24;3.70;;;3.40;;
12177;SDS011;6152;48.728;9.256;2022-08-16T05:35:50;4.70;;;4.22;;
12177;SDS011;6152;48.728;9.256;2022-08-16T05:38:16;5.18;;;4.03;;
12177;SDS011;6152;48.728;9.256;2022-08-16T05:40:44;4.25;;;3.70;;
12177;SDS011;6152;48.728;9.256;2022-08-16T05:43:10;6.40;;;3.92;;
12177;SDS011;6152;48.728;9.256;2022-08-16T05:45:36;4.22;;;3.70;;
12177;SDS011;6152;48.728;9.256;2022-08-16T05:48:03;4.53;;;3.42;;
12177;SDS011;6152;48.728;9.256;2022-08-16T05:50:29;6.95;;;4.70;;
12177;SDS011;6152;48.728;9.256;2022-08-16T05:52:55;6.60;;;4.43;;
12177;SDS011;6152;48.728;9.256;2022-08-16T05:55:21;4.82;;;3.83;;
12177;SDS011;6152;48.728;9.256;2022-08-16T05:57:47;4.93;;;3.95;;
12177;SDS011;6152;48.728;9.256;2022-08-16T06:00:14;6.97;;;4.13;;
12177;SDS011;6152;48.728;9.256;2022-08-16T06:02:40;8.48;;;4.20;;
12177;SDS011;6152;48.728;9.256;2022-08-16T06:05:08;4.60;;;4.00;;
12177;SDS011;6152;48.728;9.256;2022-08-16T06:07:34;5.85;;;4.40;;
12177;SDS011;6152;48.728;9.256;2022-08-16T06:10:01;6.57;;;4.63;;
12177;SDS011;6152;48.728;9.256;2022-08-16T06:12:28;5.50;;;3.78;;
12177;SDS011;6152;48.728;9.256;2022-08-16T06:14:56;5.22;;;4.45;;
12177;SDS011;6152;48.728;9.256;2022-08-16T06:17:28;5.00;;;4.50;;
12177;SDS011;6152;48.728;9.256;2022-08-16T06:19:54;7.10;;;4.28;;
12177;SDS011;6152;48.728;9.256;2022-08-16T06:22:20;5.80;;;4.35;;
12177;SDS011;6152;48.728;9.256;2022-08-16T06:24:47;4.35;;;3.78;;
12177;SDS011;6152;48.728;9.256;2022-08-16T06:27:15;5.90;;;4.22;;
12177;SDS011;6152;48.728;9.256;2022-08-16T06:29:41;5.43;;;4.28;;
12177;SDS011;6152;48.728;9.256;2022-08-16T06:32:08;5.38;;;4.57;;
12177;SDS011;6152;48.728;9.256;2022-08-16T06:34:35;4.78;;;4.15;;
12177;SDS011;6152;48.728;9.256;2022-08-16T06:37:02;6.25;;;4.15;;
12177;SDS011;6152;48.728;9.256;2022-08-16T06:39:29;6.78;;;4.95;;
12177;SDS011;6152;48.728;9.256;2022-08-16T06:41:55;5.75;;;4.28;;
12177;SDS011;6152;48.728;9.256;2022-08-16T06:44:22;6.10;;;4.30;;
12177;SDS011;6152;48.728;9.256;2022-08-16T06:46:48;4.85;;;4.45;;
12177;SDS011;6152;48.728;9.256;2022-08-16T06:49:14;5.10;;;4.40;;
12177;SDS011;6152;48.728;9.256;2022-08-16T06:51:41;4.93;;;3.90;;
12177;SDS011;6152;48.728;9.256;2022-08-16T06:54:08;4.55;;;4.15;;
12177;SDS011;6152;48.728;9.256;2022-08-16T06:56:34;7.70;;;4.57;;
12177;SDS011;6152;48.728;9.256;2022-08-16T06:59:01;4.97;;;4.40;;
12177;SDS011;6152;48.728;9.256;2022-08-16T07:01:28;4.72;;;4.20;;
12177;SDS011;6152;48.728;9.256;2022-08-16T07:03:54;6.65;;;5.00;;
12177;SDS011;6152;48.728;9.256;2022-08-16T07:06:21;6.72;;;4.35;;
12177;SDS011;6152;48.728;9.256;2022-08-16T07:08:48;6.88;;;5.15;;
12177;SDS011;6152;48.728;9.256;2022-08-16T07:11:14;7.75;;;4.45;;
12177;SDS011;6152;48.728;9.256;2022-08-16T07:13:41;6.60;;;4.68;;
12177;SDS011;6152;48.728;9.256;2022-08-16T07:16:08;4.45;;;4.05;;
12177;SDS011;6152;48.728;9.256;2022-08-16T07:18:43;8.32;;;5.03;;
12177;SDS011;6152;48.728;9.256;2022-08-16T07:21:11;5.53;;;4.90;;
12177;SDS011;6152;48.728;9.256;2022-08-16T07:23:38;6.32;;;4.10;;
12177;SDS011;6152;48.728;9.256;2022-08-16T07:26:06;4.75;;;3.90;;
12177;SDS011;6152;48.728;9.256;2022-08-16T07:28:35;5.38;;;4.28;;
12177;SDS011;6152;48.728;9.256;2022-08-16T07:31:02;4.30;;;4.00;;
12177;SDS011;6152;48.728;9.256;2022-08-16T07:33:29;5.47;;;4.15;;
12177;SDS011;6152;48.728;9.256;2022-08-16T07:35:58;5.30;;;3.85;;
12177;SDS011;6152;48.728;9.256;2022-08-16T07:38:24;6.45;;;4.07;;
12177;SDS011;6152;48.728;9.256;2022-08-16T07:40:52;4.72;;;4.30;;
12177;SDS011;6152;48.728;9.256;2022-08-16T07:43:19;4.63;;;4.13;;
12177;SDS011;6152;48.728;9.256;2022-08-16T07:45:47;5.63;;;4.57;;
12177;SDS011;6152;48.728;9.256;2022-08-16T07:48:14;5.65;;;4.30;;
12177;SDS011;6152;48.728;9.256;2022-08-16T07:50:40;6.32;;;4.18;;
12177;SDS011;6152;48.728;9.256;2022-08-16T07:53:07;4.38;;;3.97;;
12177;SDS011;6152;48.728;9.256;2022-08-16T07:55:34;6.18;;;4.07;;
12177;SDS011;6152;48.728;9.256;2022-08-16T07:58:00;4.50;;;3.97;;
12177;SDS011;6152;48.728;9.256;2022-08-16T08:00:27;4.50;;;4.10;;
12177;SDS011;6152;48.728;9.256;2022-08-16T08:02:53;4.85;;;4.00;;
12177;SDS011;6152;48.728;9.256;2022-08-16T08:05:20;4.43;;;4.03;;
12177;SDS011;6152;48.728;9.256;2022-08-16T08:07:48;4.32;;;3.92;;
12177;SDS011;6152;48.728;9.256;2022-08-16T08:10:16;5.30;;;4.13;;
12177;SDS011;6152;48.728;9.256;2022-08-16T08:12:45;4.90;;;4.15;;
12177;SDS011;6152;48.728;9.256;2022-08-16T08:15:13;4.20;;;3.80;;
12177;SDS011;6152;48.728;9.256;2022-08-16T08:17:40;6.00;;;4.15;;
12177;SDS011;6152;48.728;9.256;2022-08-16T08:20:07;5.00;;;4.45;;
12177;SDS011;6152;48.728;9.256;2022-08-16T08:22:35;6.65;;;4.10;;
12177;SDS011;6152;48.728;9.256;2022-08-16T08:25:02;4.22;;;3.90;;
12177;SDS011;6152;48.728;9.256;2022-08-16T08:27:29;6.13;;;3.97;;
12177;SDS011;6152;48.728;9.256;2022-08-16T08:29:55;6.18;;;4.00;;
12177;SDS011;6152;48.728;9.256;2022-08-16T08:32:22;5.30;;;4.05;;
12177;SDS011;6152;48.728;9.256;2022-08-16T08:34:49;4.68;;;4.18;;
12177;SDS011;6152;48.728;9.256;2022-08-16T08:37:15;5.60;;;4.03;;
12177;SDS011;6152;48.728;9.256;2022-08-16T08:39:41;4.03;;;3.63;;
12177;SDS011;6152;48.728;9.256;2022-08-16T08:42:07;4.45;;;3.88;;
12177;SDS011;6152;48.728;9.256;2022-08-16T08:44:34;4.55;;;4.10;;
12177;SDS011;6152;48.728;9.256;2022-08-16T08:47:02;3.33;;;3.08;;
12177;SDS011;6152;48.728;9.256;2022-08-16T08:49:31;3.97;;;3.60;;
12177;SDS011;6152;48.728;9.256;2022-08-16T08:51:58;3.85;;;3.53;;
12177;SDS011;6152;48.728;9.256;2022-08-16T08:54:24;4.50;;;3.70;;
12177;SDS011;6152;48.728;9.256;2022-08-16T08:56:51;3.95;;;3.13;;
12177;SDS011;6152;48.728;9.256;2022-08-16T08:59:18;3.78;;;3.42;;
12177;SDS011;6152;48.728;9.256;2022-08-16T09:01:45;3.70;;;3.50;;
12177;SDS011;6152;48.728;9.256;2022-08-16T09:04:12;4.22;;;3.75;;
12177;SDS011;6152;48.728;9.256;2022-08-16T09:06:39;3.83;;;3.53;;
12177;SDS011;6152;48.728;9.256;2022-08-16T09:09:06;3.88;;;3.67;;
12177;SDS011;6152;48.728;9.256;2022-08-16T09:11:36;4.35;;;3.95;;
12177;SDS011;6152;48.728;9.256;2022-08-16T09:14:02;4.30;;;3.90;;
12177;SDS011;6152;48.728;9.256;2022-08-16T09:16:29;4.60;;;4.20;;
12177;SDS011;6152;48.728;9.256;2022-08-16T09:18:57;4.13;;;3.83;;
12177;SDS011;6152;48.728;9.256;2022-08-16T09:21:24;3.95;;;3.65;;
12177;SDS011;6152;48.728;9.256;2022-08-16T09:23:50;3.65;;;3.35;;
12177;SDS011;6152;48.728;9.256;2022-08-16T09:26:17;4.35;;;3.70;;
12177;SDS011;6152;48.728;9.256;2022-08-16T09:28:43;3.70;;;3.20;;
12177;SDS011;6152;48.728;9.256;2022-08-16T09:31:11;3.03;;;2.70;;
12177;SDS011;6152;48.728;9.256;2022-08-16T09:33:38;3.70;;;3.08;;
12177;SDS011;6152;48.728;9.256;2022-08-16T09:36:06;3.05;;;2.80;;
12177;SDS011;6152;48.728;9.256;2022-08-16T09:38:33;4.10;;;3.22;;
12177;SDS011;6152;48.728;9.256;2022-08-16T09:41:02;3.40;;;3.20;;
12177;SDS011;6152;48.728;9.256;2022-08-16T09:43:30;3.42;;;3.22;;
12177;SDS011;6152;48.728;9.256;2022-08-16T09:45:58;3.33;;;3.13;;
12177;SDS011;6152;48.728;9.256;2022-08-16T09:48:25;3.38;;;3.17;;
12177;SDS011;6152;48.728;9.256;2022-08-16T09:50:52;3.30;;;3.10;;
12177;SDS011;6152;48.728;9.256;2022-08-16T09:53:20;4.78;;;3.30;;
12177;SDS011;6152;48.728;9.256;2022-08-16T09:55:48;3.15;;;2.80;;
12177;SDS011;6152;48.728;9.256;2022-08-16T09:58:20;3.00;;;2.80;;
12177;SDS011;6152;48.728;9.256;2022-08-16T10:00:51;7.60;;;3.63;;
12177;SDS011;6152;48.728;9.256;2022-08-16T10:03:18;4.63;;;3.08;;
12177;SDS011;6152;48.728;9.256;2022-08-16T10:05:45;4.63;;;3.35;;
12177;SDS011;6152;48.728;9.256;2022-08-16T10:08:13;5.32;;;3.80;;
12177;SDS011;6152;48.728;9.256;2022-08-16T10:10:40;4.20;;;3.80;;
12177;SDS011;6152;48.728;9.256;2022-08-16T10:13:27;4.90;;;3.67;;
12177;SDS011;6152;48.728;9.256;2022-08-16T10:15:54;4.97;;;3.72;;
12177;SDS011;6152;48.728;9.256;2022-08-16T10:18:24;3.58;;;3.20;;
12177;SDS011;6152;48.728;9.256;2022-08-16T10:20:52;3.47;;;3.17;;
12177;SDS011;6152;48.728;9.256;2022-08-16T10:23:19;3.67;;;3.35;;
12177;SDS011;6152;48.728;9.256;2022-08-16T10:25:46;5.90;;;3.55;;
12177;SDS011;6152;48.728;9.256;2022-08-16T10:28:13;4.18;;;3.28;;
12177;SDS011;6152;48.728;9.256;2022-08-16T10:30:39;3.67;;;3.25;;
12177;SDS011;6152;48.728;9.256;2022-08-16T10:33:07;3.33;;;3.13;;
12177;SDS011;6152;48.728;9.256;2022-08-16T10:35:34;3.33;;;3.15;;
12177;SDS011;6152;48.728;9.256;2022-08-16T10:38:00;4.03;;;3.70;;
12177;SDS011;6152;48.728;9.256;2022-08-16T10:40:27;3.75;;;3.15;;
12177;SDS011;6152;48.728;9.256;2022-08-16T10:42:53;4.93;;;3.17;;
12177;SDS011;6152;48.728;9.256;2022-08-16T10:45:20;3.97;;;3.17;;
12177;SDS011;6152;48.728;9.256;2022-08-16T10:47:46;3.15;;;2.95;;
12177;SDS011;6152;48.728;9.256;2022-08-16T10:50:13;3.65;;;3.15;;
12177;SDS011;6152;48.728;9.256;2022-08-16T10:52:40;3.10;;;2.90;;
12177;SDS011;6152;48.728;9.256;2022-08-16T10:55:07;3.45;;;3.08;;
12177;SDS011;6152;48.728;9.256;2022-08-16T10:57:35;3.25;;;2.95;;
12177;SDS011;6152;48.728;9.256;2022-08-16T11:00:03;4.43;;;3.25;;
12177;SDS011;6152;48.728;9.256;2022-08-16T11:02:37;4.32;;;3.65;;
12177;SDS011;6152;48.728;9.256;2022-08-16T11:05:03;3.42;;;3.22;;
12177;SDS011;6152;48.728;9.256;2022-08-16T11:07:31;3.40;;;3.15;;
12177;SDS011;6152;48.728;9.256;2022-08-16T11:09:57;4.05;;;3.25;;
12177;SDS011;6152;48.728;9.256;2022-08-16T11:12:26;3.47;;;3.13;;
12177;SDS011;6152;48.728;9.256;2022-08-16T11:14:52;3.65;;;3.35;;
12177;SDS011;6152;48.728;9.256;2022-08-16T11:17:18;4.20;;;2.90;;
12177;SDS011;6152;48.728;9.256;2022-08-16T11:19:44;3.08;;;2.90;;
12177;SDS011;6152;48.728;9.256;2022-08-16T11:22:10;4.45;;;2.90;;
12177;SDS011;6152;48.728;9.256;2022-08-16T11:24:37;2.90;;;2.70;;
12177;SDS011;6152;48.728;9.256;2022-08-16T11:27:05;3.10;;;2.80;;
12177;SDS011;6152;48.728;9.256;2022-08-16T11:29:33;3.47;;;3.28;;
12177;SDS011;6152;48.728;9.256;2022-08-16T11:31:59;3.80;;;3.00;;
12177;SDS011;6152;48.728;9.256;2022-08-16T11:34:26;3.35;;;3.15;;
12177;SDS011;6152;48.728;9.256;2022-08-16T11:36:52;3.05;;;2.70;;
12177;SDS011;6152;48.728;9.256;2022-08-16T11:39:19;4.82;;;3.42;;
12177;SDS011;6152;48.728;9.256;2022-08-16T11:41:45;2.78;;;2.67;;
12177;SDS011;6152;48.728;9.256;2022-08-16T11:44:11;4.07;;;3.72;;
12177;SDS011;6152;48.728;9.256;2022-08-16T11:46:37;3.70;;;2.92;;
12177;SDS011;6152;48.728;9.256;2022-08-16T11:49:04;3.13;;;2.90;;
12177;SDS011;6152;48.728;9.256;2022-08-16T11:51:30;3.00;;;2.83;;
12177;SDS011;6152;48.728;9.256;2022-08-16T11:53:56;3.42;;;3.22;;
12177;SDS011;6152;48.728;9.256;2022-08-16T11:56:23;3.03;;;2.83;;
12177;SDS011;6152;48.728;9.256;2022-08-16T11:58:49;2.88;;;2.67;;
12177;SDS011;6152;48.728;9.256;2022-08-16T12:01:15;2.67;;;2.38;;
12177;SDS011;6152;48.728;9.256;2022-08-16T12:03:41;3.40;;;2.55;;
12177;SDS011;6152;48.728;9.256;2022-08-16T12:06:09;2.88;;;2.58;;
12177;SDS011;6152;48.728;9.256;2022-08-16T12:08:39;3.00;;;2.65;;
12177;SDS011;6152;48.728;9.256;2022-08-16T12:11:06;3.00;;;2.65;;
12177;SDS011;6152;48.728;9.256;2022-08-16T12:13:33;2.85;;;2.53;;
12177;SDS011;6152;48.728;9.256;2022-08-16T12:16:00;2.63;;;2.47;;
12177;SDS011;6152;48.728;9.256;2022-08-16T12:18:27;2.78;;;2.67;;
12177;SDS011;6152;48.728;9.256;2022-08-16T12:20:54;3.40;;;2.75;;
12177;SDS011;6152;48.728;9.256;2022-08-16T12:23:20;2.88;;;2.67;;
12177;SDS011;6152;48.728;9.256;2022-08-16T12:25:47;2.53;;;2.42;;
12177;SDS011;6152;48.728;9.256;2022-08-16T12:28:13;4.15;;;2.38;;
12177;SDS011;6152;48.728;9.256;2022-08-16T12:30:41;2.85;;;2.65;;
12177;SDS011;6152;48.728;9.256;2022-08-16T12:33:11;2.53;;;2.42;;
12177;SDS011;6152;48.728;9.256;2022-08-16T12:35:41;4.32;;;2.83;;
12177;SDS011;6152;48.728;9.256;2022-08-16T12:38:09;2.85;;;2.65;;
12177;SDS011;6152;48.728;9.256;2022-08-16T12:40:37;3.45;;;2.65;;
12177;SDS011;6152;48.728;9.256;2022-08-16T12:43:06;3.25;;;2.78;;
12177;SDS011;6152;48.728;9.256;2022-08-16T12:45:36;3.65;;;2.63;;
12177;SDS011;6152;48.728;9.256;2022-08-16T12:48:06;2.70;;;2.50;;
12177;SDS011;6152;48.728;9.256;2022-08-16T12:50:51;2.88;;;2.58;;
12177;SDS011;6152;48.728;9.256;2022-08-16T12:53:18;3.25;;;2.85;;
12177;SDS011;6152;48.728;9.256;2022-08-16T12:55:45;3.22;;;2.72;;
12177;SDS011;6152;48.728;9.256;2022-08-16T12:58:13;3.10;;;2.90;;
12177;SDS011;6152;48.728;9.256;2022-08-16T13:00:40;3.17;;;2.70;;
12177;SDS011;6152;48.728;9.256;2022-08-16T13:03:07;3.10;;;2.90;;
12177;SDS011;6152;48.728;9.256;2022-08-16T13:05:34;4.30;;;3.05;;
12177;SDS011;6152;48.728;9.256;2022-08-16T13:08:05;8.45;;;3.05;;
12177;SDS011;6152;48.728;9.256;2022-08-16T13:10:35;3.33;;;2.63;;
12177;SDS011;6152;48.728;9.256;2022-08-16T13:13:02;3.33;;;3.10;;
12177;SDS011;6152;48.728;9.256;2022-08-16T13:15:30;2.97;;;2.67;;
12177;SDS011;6152;48.728;9.256;2022-08-16T13:17:56;3.47;;;2.65;;
12177;SDS011;6152;48.728;9.256;2022-08-16T13:20:23;3.03;;;2.83;;
12177;SDS011;6152;48.728;9.256;2022-08-16T13:23:00;2.78;;;2.60;;
12177;SDS011;6152;48.728;9.256;2022-08-16T13:25:30;2.92;;;2.63;;
12177;SDS011;6152;48.728;9.256;2022-08-16T13:27:58;3.25;;;3.05;;
12177;SDS011;6152;48.728;9.256;2022-08-16T13:30:25;3.10;;;2.80;;
12177;SDS011;6152;48.728;9.256;2022-08-16T13:32:53;3.10;;;2.90;;
12177;SDS011;6152;48.728;9.256;2022-08-16T13:35:20;2.92;;;2.72;;
12177;SDS011;6152;48.728;9.256;2022-08-16T13:37:47;3.17;;;2.95;;
12177;SDS011;6152;48.728;9.256;2022-08-16T13:40:14;2.88;;;2.67;;
12177;SDS011;6152;48.728;9.256;2022-08-16T13:42:41;3.17;;;2.97;;
12177;SDS011;6152;48.728;9.256;2022-08-16T13:45:08;2.97;;;2.78;;
12177;SDS011;6152;48.728;9.256;2022-08-16T13:47:36;3.88;;;3.17;;
12177;SDS011;6152;48.728;9.256;2022-08-16T13:50:03;3.10;;;2.80;;
12177;SDS011;6152;48.728;9.256;2022-08-16T13:52:31;2.78;;;2.50;;
12177;SDS011;6152;48.728;9.256;2022-08-16T13:54:58;3.35;;;2.65;;
12177;SDS011;6152;48.728;9.256;2022-08-16T13:57:24;3.28;;;3.00;;
12177;SDS011;6152;48.728;9.256;2022-08-16T13:59:51;3.03;;;2.80;;
12177;SDS011;6152;48.728;9.256;2022-08-16T14:02:17;5.00;;;3.00;;
12177;SDS011;6152;48.728;9.256;2022-08-16T14:04:44;3.28;;;2.67;;
12177;SDS011;6152;48.728;9.256;2022-08-16T14:07:12;3.40;;;3.05;;
12177;SDS011;6152;48.728;9.256;2022-08-16T14:09:40;3.22;;;2.85;;
12177;SDS011;6152;48.728;9.256;2022-08-16T14:12:18;2.95;;;2.75;;
12177;SDS011;6152;48.728;9.256;2022-08-16T14:14:49;3.20;;;2.90;;
12177;SDS011;6152;48.728;9.256;2022-08-16T14:17:17;3.70;;;2.92;;
12177;SDS011;6152;48.728;9.256;2022-08-16T14:19:44;3.25;;;2.95;;
12177;SDS011;6152;48.728;9.256;2022-08-16T14:22:14;3.50;;;2.95;;
12177;SDS011;6152;48.728;9.256;2022-08-16T14:24:46;3.00;;;2.78;;
12177;SDS011;6152;48.728;9.256;2022-08-16T14:27:17;5.07;;;3.30;;
12177;SDS011;6152;48.728;9.256;2022-08-16T14:29:45;3.10;;;2.90;;
12177;SDS011;6152;48.728;9.256;2022-08-16T14:32:12;3.70;;;3.40;;
12177;SDS011;6152;48.728;9.256;2022-08-16T14:34:39;3.67;;;3.00;;
12177;SDS011;6152;48.728;9.256;2022-08-16T14:37:06;2.88;;;2.67;;
12177;SDS011;6152;48.728;9.256;2022-08-16T14:39:32;3.50;;;3.03;;
12177;SDS011;6152;48.728;9.256;2022-08-16T14:42:09;2.80;;;2.60;;
12177;SDS011;6152;48.728;9.256;2022-08-16T14:44:37;3.40;;;2.67;;
12177;SDS011;6152;48.728;9.256;2022-08-16T14:47:04;3.20;;;2.90;;
12177;SDS011;6152;48.728;9.256;2022-08-16T14:49:31;3.13;;;2.85;;
12177;SDS011;6152;48.728;9.256;2022-08-16T14:52:08;3.35;;;3.08;;
12177;SDS011;6152;48.728;9.256;2022-08-16T14:54:37;3.03;;;2.83;;
12177;SDS011;6152;48.728;9.256;2022-08-16T14:57:04;4.05;;;3.10;;
12177;SDS011;6152;48.728;9.256;2022-08-16T14:59:31;4.35;;;3.00;;
12177;SDS011;6152;48.728;9.256;2022-08-16T15:01:57;3.13;;;2.88;;